Time;durP1;ratioP1;P1;durP2;ratioP2;P2;SDS_P1;SDS_P2;PMS_P1;PMS_P2;Temp;Humidity;BMP_temperature;BMP_pressure;BME280_temperature;BME280_humidity;BME280_pressure;Samples;Min_cycle;Max_cycle;Signal;HPM_P1;HPM_P2
2023/04/07 00:01:14;;;;;;;;;;;8.00;57.20;;;;;;4929155;29;19925;-68
2023/04/07 00:03:46;;;;;;;;;;;7.90;57.00;;;;;;4932650;29;19914;-69
2023/04/07 00:06:12;;;;;;;;;;;8.00;56.90;;;;;;4931024;29;19925;-68
2023/04/07 00:08:39;;;;;;;;;;;7.90;57.10;;;;;;4916505;29;19914;-70
2023/04/07 00:11:07;;;;;;;;;;;8.00;56.90;;;;;;4915753;29;20706;-69
2023/04/07 00:13:34;;;;;;;;;;;7.90;56.60;;;;;;4957963;28;20342;-68
2023/04/07 00:16:04;;;;;;;;;;;7.90;56.80;;;;;;4934033;28;19966;-68
2023/04/07 00:18:32;;;;;;;;;;;7.80;56.90;;;;;;4948357;29;19926;-71
2023/04/07 00:21:01;;;;;;;;;;;7.80;56.90;;;;;;4943095;28;19910;-71
2023/04/07 00:23:31;;;;;;;;;;;7.80;56.60;;;;;;4939572;29;20291;-71
2023/04/07 00:25:58;;;;;;;;;;;7.70;56.60;;;;;;4940020;28;19922;-71
2023/04/07 00:28:28;;;;;;;;;;;7.70;56.90;;;;;;4931245;29;20009;-72
2023/04/07 00:30:54;;;;;;;;;;;7.70;56.80;;;;;;4930294;29;19918;-71
2023/04/07 00:33:20;;;;;;;;;;;7.80;56.20;;;;;;4958641;28;19915;-71
2023/04/07 00:35:46;;;;;;;;;;;7.80;56.20;;;;;;4936361;29;20324;-68
2023/04/07 00:38:16;;;;;;;;;;;7.80;56.10;;;;;;4931555;29;20017;-69
2023/04/07 00:40:44;;;;;;;;;;;7.80;56.20;;;;;;4900358;29;19914;-68
2023/04/07 00:43:11;;;;;;;;;;;7.70;55.60;;;;;;4923915;29;20038;-71
2023/04/07 00:45:38;;;;;;;;;;;7.80;55.60;;;;;;4928576;29;20661;-72
2023/04/07 00:48:06;;;;;;;;;;;7.80;55.90;;;;;;4932939;29;19961;-72
2023/04/07 00:50:32;;;;;;;;;;;7.70;55.90;;;;;;4913934;29;19974;-71
2023/04/07 00:53:01;;;;;;;;;;;7.80;55.90;;;;;;4928159;29;19930;-72
2023/04/07 00:55:29;;;;;;;;;;;7.70;55.60;;;;;;4939668;29;19940;-71
2023/04/07 00:58:03;;;;;;;;;;;7.80;55.70;;;;;;4916614;29;19980;-72
2023/04/07 01:00:37;;;;;;;;;;;7.70;55.50;;;;;;4931067;29;19953;-69
2023/04/07 01:03:12;;;;;;;;;;;7.70;55.70;;;;;;4971959;28;19915;-72
2023/04/07 01:05:45;;;;;;;;;;;7.70;55.80;;;;;;4929247;29;19946;-72
2023/04/07 01:08:19;;;;;;;;;;;7.70;55.70;;;;;;4957839;28;19915;-72
2023/04/07 01:11:04;;;;;;;;;;;7.70;55.80;;;;;;4920089;29;20505;-72
2023/04/07 01:13:31;;;;;;;;;;;7.70;55.90;;;;;;4931770;29;19921;-72
2023/04/07 01:15:57;;;;;;;;;;;7.70;56.30;;;;;;4930308;29;20228;-72
2023/04/07 01:18:27;;;;;;;;;;;7.70;56.10;;;;;;4898968;29;19933;-73
2023/04/07 01:21:11;;;;;;;;;;;7.60;56.20;;;;;;4906117;29;20166;-72
2023/04/07 01:23:52;;;;;;;;;;;7.60;56.50;;;;;;4938413;29;19919;-71
2023/04/07 01:26:22;;;;;;;;;;;7.50;56.40;;;;;;4944401;28;20029;-72
2023/04/07 01:29:10;;;;;;;;;;;7.60;56.30;;;;;;4920561;29;20541;-71
2023/04/07 01:31:36;;;;;;;;;;;7.60;56.20;;;;;;4920616;29;19925;-71
2023/04/07 01:34:03;;;;;;;;;;;7.70;56.30;;;;;;4903681;29;19914;-72
2023/04/07 01:36:28;;;;;;;;;;;7.60;55.80;;;;;;4936524;29;20327;-71
2023/04/07 01:38:55;;;;;;;;;;;7.60;55.70;;;;;;4934235;29;19919;-71
2023/04/07 01:41:25;;;;;;;;;;;7.60;55.90;;;;;;4947968;29;19951;-70
2023/04/07 01:43:51;;;;;;;;;;;7.60;55.90;;;;;;4976926;28;20671;-69
2023/04/07 01:46:20;;;;;;;;;;;7.60;56.20;;;;;;4936418;29;19914;-68
2023/04/07 01:48:50;;;;;;;;;;;7.50;55.80;;;;;;4948495;28;19914;-69
2023/04/07 01:51:20;;;;;;;;;;;7.50;56.00;;;;;;4917717;29;19914;-69
2023/04/07 01:53:47;;;;;;;;;;;7.50;55.60;;;;;;4906308;29;20025;-73
2023/04/07 01:56:15;;;;;;;;;;;7.50;55.70;;;;;;4924862;29;20034;-69
2023/04/07 01:58:41;;;;;;;;;;;7.50;55.70;;;;;;4949289;28;20009;-69
2023/04/07 02:01:08;;;;;;;;;;;7.60;55.80;;;;;;4937088;29;19930;-71
2023/04/07 02:03:39;;;;;;;;;;;7.60;55.60;;;;;;4951452;29;20426;-69
2023/04/07 02:06:09;;;;;;;;;;;7.60;55.60;;;;;;4934307;29;20000;-73
2023/04/07 02:08:55;;;;;;;;;;;7.70;55.70;;;;;;4939854;28;20052;-69
2023/04/07 02:11:24;;;;;;;;;;;7.60;55.70;;;;;;4936634;29;19911;-69
2023/04/07 02:13:51;;;;;;;;;;;7.60;55.70;;;;;;4914702;29;19939;-69
2023/04/07 02:16:17;;;;;;;;;;;7.70;55.60;;;;;;4922469;29;19923;-72
2023/04/07 02:18:43;;;;;;;;;;;7.70;55.60;;;;;;4921751;29;19935;-68
2023/04/07 02:21:11;;;;;;;;;;;7.50;55.50;;;;;;4951421;28;19914;-69
2023/04/07 02:23:37;;;;;;;;;;;7.50;55.70;;;;;;4922469;29;20326;-69
2023/04/07 02:26:03;;;;;;;;;;;7.60;55.60;;;;;;4905772;29;19963;-69
2023/04/07 02:28:30;;;;;;;;;;;7.60;55.60;;;;;;4921995;29;19915;-70
2023/04/07 02:30:55;;;;;;;;;;;7.70;55.50;;;;;;4935668;29;20268;-69
2023/04/07 02:33:28;;;;;;;;;;;7.50;55.60;;;;;;4900829;29;20001;-69
2023/04/07 02:35:59;;;;;;;;;;;7.50;55.90;;;;;;4919095;29;19914;-69
2023/04/07 02:38:28;;;;;;;;;;;7.40;55.70;;;;;;4928485;29;20013;-71
2023/04/07 02:40:57;;;;;;;;;;;7.30;56.30;;;;;;4924151;29;19919;-71
2023/04/07 02:43:24;;;;;;;;;;;7.30;56.20;;;;;;4952432;28;19926;-69
2023/04/07 02:45:53;;;;;;;;;;;7.30;56.00;;;;;;4927593;29;19914;-69
2023/04/07 02:48:24;;;;;;;;;;;7.40;56.40;;;;;;4950283;29;19922;-72
2023/04/07 02:50:53;;;;;;;;;;;7.40;55.90;;;;;;4925569;29;19980;-68
2023/04/07 02:53:20;;;;;;;;;;;7.30;56.10;;;;;;4933396;29;19914;-69
2023/04/07 02:55:47;;;;;;;;;;;7.30;56.10;;;;;;4923336;29;20371;-69
2023/04/07 02:58:13;;;;;;;;;;;7.20;56.40;;;;;;4937699;29;19934;-69
2023/04/07 03:00:45;;;;;;;;;;;7.30;56.30;;;;;;4929863;29;19915;-69
2023/04/07 03:03:11;;;;;;;;;;;7.20;56.00;;;;;;4903749;29;20015;-69
2023/04/07 03:05:39;;;;;;;;;;;7.20;56.20;;;;;;4918563;29;19914;-69
2023/04/07 03:08:05;;;;;;;;;;;7.30;56.90;;;;;;4926501;29;19946;-68
2023/04/07 03:10:33;;;;;;;;;;;7.20;57.50;;;;;;4961532;28;19921;-69
2023/04/07 03:12:59;;;;;;;;;;;7.10;58.30;;;;;;4927275;29;20231;-71
2023/04/07 03:15:26;;;;;;;;;;;6.90;59.20;;;;;;4919314;29;19918;-72
2023/04/07 03:17:52;;;;;;;;;;;7.00;59.60;;;;;;4965773;28;19937;-71
2023/04/07 03:20:18;;;;;;;;;;;6.90;59.80;;;;;;4959553;28;19993;-71
2023/04/07 03:22:46;;;;;;;;;;;6.80;60.50;;;;;;4929972;29;19963;-71
2023/04/07 03:25:12;;;;;;;;;;;6.70;60.60;;;;;;4930491;29;19915;-72
2023/04/07 03:27:38;;;;;;;;;;;6.60;61.10;;;;;;4959209;28;19919;-71
2023/04/07 03:30:04;;;;;;;;;;;6.60;61.10;;;;;;4926313;28;20220;-69
2023/04/07 03:32:31;;;;;;;;;;;6.50;61.60;;;;;;4916191;29;19915;-68
2023/04/07 03:34:59;;;;;;;;;;;6.40;61.90;;;;;;4933540;29;19966;-69
2023/04/07 03:37:25;;;;;;;;;;;6.30;62.40;;;;;;4923628;29;20288;-69
2023/04/07 03:39:51;;;;;;;;;;;6.20;62.10;;;;;;4918458;29;19918;-70
2023/04/07 03:42:20;;;;;;;;;;;6.20;62.80;;;;;;4940601;29;20391;-69
2023/04/07 03:44:47;;;;;;;;;;;6.10;63.20;;;;;;4944503;29;20021;-69
2023/04/07 03:47:13;;;;;;;;;;;6.10;63.80;;;;;;4930388;29;19915;-69
2023/04/07 03:49:38;;;;;;;;;;;6.00;64.10;;;;;;4950959;28;20383;-69
2023/04/07 03:52:08;;;;;;;;;;;6.00;64.00;;;;;;4942809;29;19914;-69
2023/04/07 03:54:35;;;;;;;;;;;5.90;64.80;;;;;;4948770;29;19926;-68
2023/04/07 03:57:03;;;;;;;;;;;5.80;65.70;;;;;;4917318;29;19925;-71
2023/04/07 03:59:31;;;;;;;;;;;5.70;65.60;;;;;;4916628;29;19926;-72
2023/04/07 04:02:03;;;;;;;;;;;5.60;66.60;;;;;;4940677;29;19914;-71
2023/04/07 04:04:32;;;;;;;;;;;5.50;67.10;;;;;;4934880;29;19957;-72
2023/04/07 04:06:58;;;;;;;;;;;5.40;68.30;;;;;;4948344;29;19946;-72
2023/04/07 04:09:24;;;;;;;;;;;5.40;68.00;;;;;;4967392;28;20335;-71
2023/04/07 04:11:53;;;;;;;;;;;5.40;68.80;;;;;;4919458;29;19927;-72
2023/04/07 04:14:20;;;;;;;;;;;5.30;68.10;;;;;;4933307;29;19925;-72
2023/04/07 04:16:50;;;;;;;;;;;5.20;69.30;;;;;;4948698;28;20013;-71
2023/04/07 04:19:17;;;;;;;;;;;5.30;69.00;;;;;;4916676;29;19958;-72
2023/04/07 04:21:42;;;;;;;;;;;5.30;69.60;;;;;;4917027;29;19997;-70
2023/04/07 04:24:11;;;;;;;;;;;5.20;69.80;;;;;;4933146;29;19911;-72
2023/04/07 04:26:38;;;;;;;;;;;5.10;70.60;;;;;;4917271;29;19911;-71
2023/04/07 04:29:07;;;;;;;;;;;5.10;70.60;;;;;;4916522;29;19926;-68
2023/04/07 04:31:34;;;;;;;;;;;5.10;71.40;;;;;;4916631;29;19922;-72
2023/04/07 04:34:03;;;;;;;;;;;5.00;72.30;;;;;;4941689;29;19982;-71
2023/04/07 04:36:30;;;;;;;;;;;4.90;72.10;;;;;;4963982;28;19915;-72
2023/04/07 04:38:57;;;;;;;;;;;4.90;72.40;;;;;;4956325;28;20228;-71
2023/04/07 04:41:24;;;;;;;;;;;4.80;72.80;;;;;;4956451;28;19929;-69
2023/04/07 04:43:50;;;;;;;;;;;4.80;73.30;;;;;;4914111;29;19914;-68
2023/04/07 04:46:17;;;;;;;;;;;4.70;73.50;;;;;;4949771;28;19915;-72
2023/04/07 04:48:46;;;;;;;;;;;4.70;73.70;;;;;;4971951;28;20295;-69
2023/04/07 04:51:18;;;;;;;;;;;4.70;73.60;;;;;;4916551;29;19926;-68
2023/04/07 04:53:44;;;;;;;;;;;4.70;73.90;;;;;;4916862;29;19915;-69
2023/04/07 04:56:10;;;;;;;;;;;4.60;74.50;;;;;;4925266;29;19914;-69
2023/04/07 04:58:36;;;;;;;;;;;4.60;75.00;;;;;;4917780;29;20327;-69
2023/04/07 05:01:02;;;;;;;;;;;4.60;75.30;;;;;;4932912;29;20335;-69
2023/04/07 05:03:29;;;;;;;;;;;4.60;75.60;;;;;;4941140;29;19925;-68
2023/04/07 05:05:55;;;;;;;;;;;4.50;75.90;;;;;;4944630;28;20166;-68
2023/04/07 05:08:20;;;;;;;;;;;4.50;75.80;;;;;;4939899;28;19946;-69
2023/04/07 05:10:46;;;;;;;;;;;4.50;76.10;;;;;;4941695;29;20316;-69
2023/04/07 05:13:13;;;;;;;;;;;4.40;77.10;;;;;;4931247;29;19919;-69
2023/04/07 05:15:40;;;;;;;;;;;4.40;77.80;;;;;;4933223;29;20642;-69
2023/04/07 05:18:05;;;;;;;;;;;4.50;77.70;;;;;;4936062;29;20209;-69
2023/04/07 05:20:31;;;;;;;;;;;4.40;77.70;;;;;;4933986;29;19979;-69
2023/04/07 05:22:57;;;;;;;;;;;4.50;77.60;;;;;;4963518;28;19915;-69
2023/04/07 05:25:22;;;;;;;;;;;4.50;77.80;;;;;;4914118;29;19919;-69
2023/04/07 05:27:48;;;;;;;;;;;4.50;78.90;;;;;;4938030;29;20532;-69
2023/04/07 05:30:14;;;;;;;;;;;4.50;79.90;;;;;;4913102;29;19959;-69
2023/04/07 05:32:40;;;;;;;;;;;4.50;80.40;;;;;;4926898;29;19919;-69
2023/04/07 05:35:06;;;;;;;;;;;4.30;81.80;;;;;;4933462;29;19922;-68
2023/04/07 05:37:31;;;;;;;;;;;4.30;82.30;;;;;;4932260;29;19930;-69
2023/04/07 05:39:57;;;;;;;;;;;4.40;81.50;;;;;;4928562;29;19938;-69
2023/04/07 05:42:23;;;;;;;;;;;4.40;81.80;;;;;;4922860;29;20005;-69
2023/04/07 05:44:49;;;;;;;;;;;4.40;82.00;;;;;;4932130;29;19922;-69
2023/04/07 05:47:15;;;;;;;;;;;4.30;82.30;;;;;;4913226;29;19915;-69
2023/04/07 05:49:44;;;;;;;;;;;4.40;82.40;;;;;;4930457;29;20224;-69
2023/04/07 05:52:11;;;;;;;;;;;4.40;82.00;;;;;;4916618;29;19915;-69
2023/04/07 05:54:36;;;;;;;;;;;4.40;82.00;;;;;;4915399;29;19915;-69
2023/04/07 05:57:02;;;;;;;;;;;4.50;81.90;;;;;;4934026;29;20095;-69
2023/04/07 05:59:28;;;;;;;;;;;4.50;82.00;;;;;;4941456;29;19926;-69
2023/04/07 06:01:53;;;;;;;;;;;4.40;82.90;;;;;;4960383;28;19926;-69
2023/04/07 06:04:19;;;;;;;;;;;4.40;83.40;;;;;;4945155;29;19966;-69
2023/04/07 06:06:45;;;;;;;;;;;4.40;83.50;;;;;;4926047;29;20387;-69
2023/04/07 06:09:11;;;;;;;;;;;4.50;82.70;;;;;;4936102;29;19973;-69
2023/04/07 06:11:36;;;;;;;;;;;4.60;82.40;;;;;;4918574;29;20248;-68
2023/04/07 06:14:02;;;;;;;;;;;4.50;82.20;;;;;;4951530;29;19915;-69
2023/04/07 06:16:27;;;;;;;;;;;4.50;83.30;;;;;;4937051;29;19918;-69
2023/04/07 06:18:53;;;;;;;;;;;4.60;82.80;;;;;;4935948;29;20322;-69
2023/04/07 06:21:19;;;;;;;;;;;4.80;82.40;;;;;;4961208;28;20005;-69
2023/04/07 06:23:44;;;;;;;;;;;4.90;83.00;;;;;;4933600;29;19921;-69
2023/04/07 06:26:10;;;;;;;;;;;4.90;83.20;;;;;;4944840;29;20236;-69
2023/04/07 06:28:36;;;;;;;;;;;5.00;83.30;;;;;;4936514;29;20323;-69
2023/04/07 06:31:02;;;;;;;;;;;5.00;83.70;;;;;;4936607;29;19930;-69
2023/04/07 06:33:28;;;;;;;;;;;5.10;83.10;;;;;;4961648;28;19915;-69
2023/04/07 06:35:55;;;;;;;;;;;5.20;83.50;;;;;;4934991;29;19925;-68
2023/04/07 06:38:21;;;;;;;;;;;5.30;84.50;;;;;;4950948;29;19923;-69
2023/04/07 06:40:46;;;;;;;;;;;5.40;84.20;;;;;;4935930;29;20377;-69
2023/04/07 06:43:12;;;;;;;;;;;5.50;83.60;;;;;;4934653;29;19978;-69
2023/04/07 06:45:38;;;;;;;;;;;5.60;83.60;;;;;;4961308;28;20363;-69
2023/04/07 06:48:03;;;;;;;;;;;5.80;82.70;;;;;;4959630;28;20012;-69
2023/04/07 06:50:29;;;;;;;;;;;5.90;81.80;;;;;;4936982;29;19977;-69
2023/04/07 06:52:54;;;;;;;;;;;6.10;80.50;;;;;;4935727;29;19918;-69
2023/04/07 06:55:20;;;;;;;;;;;6.30;80.50;;;;;;4936052;29;19914;-69
2023/04/07 06:57:46;;;;;;;;;;;6.40;80.10;;;;;;4943918;29;19946;-69
2023/04/07 07:00:12;;;;;;;;;;;6.60;80.10;;;;;;4934787;29;19915;-69
2023/04/07 07:02:37;;;;;;;;;;;6.70;80.20;;;;;;4919463;29;19914;-69
2023/04/07 07:05:03;;;;;;;;;;;6.80;78.50;;;;;;4934077;29;19981;-69
2023/04/07 07:07:29;;;;;;;;;;;6.90;78.00;;;;;;4934103;29;19993;-70
2023/04/07 07:09:55;;;;;;;;;;;6.90;76.50;;;;;;4934591;29;20521;-69
2023/04/07 07:12:20;;;;;;;;;;;7.10;76.00;;;;;;4934350;29;19926;-69
2023/04/07 07:14:46;;;;;;;;;;;7.10;75.90;;;;;;4963133;28;20324;-69
2023/04/07 07:17:12;;;;;;;;;;;7.10;76.70;;;;;;4934589;29;19922;-69
2023/04/07 07:19:37;;;;;;;;;;;7.20;75.70;;;;;;4962597;28;19922;-69
2023/04/07 07:22:03;;;;;;;;;;;7.30;74.90;;;;;;4935290;29;19919;-69
2023/04/07 07:24:29;;;;;;;;;;;7.30;75.00;;;;;;4935623;29;20311;-69
2023/04/07 07:26:56;;;;;;;;;;;7.40;75.10;;;;;;4959470;28;19914;-69
2023/04/07 07:29:21;;;;;;;;;;;7.50;75.30;;;;;;4938029;29;19922;-69
2023/04/07 07:31:50;;;;;;;;;;;7.50;74.50;;;;;;4931074;29;20300;-71
2023/04/07 07:34:22;;;;;;;;;;;7.50;74.00;;;;;;4957597;28;19915;-72
2023/04/07 07:37:00;;;;;;;;;;;7.50;73.90;;;;;;4931784;29;19925;-69
2023/04/07 07:39:30;;;;;;;;;;;7.70;74.50;;;;;;4932414;29;19919;-72
2023/04/07 07:42:01;;;;;;;;;;;7.70;73.70;;;;;;4934225;29;20362;-69
2023/04/07 07:44:29;;;;;;;;;;;7.80;73.90;;;;;;4938995;28;19958;-72
2023/04/07 07:46:55;;;;;;;;;;;7.90;73.90;;;;;;4932881;29;19946;-72
2023/04/07 07:49:23;;;;;;;;;;;7.90;73.50;;;;;;4958173;28;19918;-72
2023/04/07 07:51:49;;;;;;;;;;;8.00;72.90;;;;;;4927007;29;19974;-72
2023/04/07 07:54:14;;;;;;;;;;;8.10;72.40;;;;;;4932803;29;19915;-72
2023/04/07 07:56:40;;;;;;;;;;;8.10;72.20;;;;;;4975523;28;20006;-73
2023/04/07 07:59:06;;;;;;;;;;;8.20;71.30;;;;;;4932506;29;20005;-72
2023/04/07 08:01:31;;;;;;;;;;;8.20;70.50;;;;;;4934195;29;19915;-72
2023/04/07 08:03:57;;;;;;;;;;;8.30;70.40;;;;;;4899250;29;19914;-72
2023/04/07 08:06:23;;;;;;;;;;;8.50;70.10;;;;;;4935292;29;20343;-75
2023/04/07 08:08:56;;;;;;;;;;;8.50;72.10;;;;;;4968012;28;19910;-77
2023/04/07 08:11:22;;;;;;;;;;;8.70;74.20;;;;;;4945054;29;20019;-75
2023/04/07 08:13:47;;;;;;;;;;;8.90;76.10;;;;;;4935152;29;19910;-75
2023/04/07 08:16:13;;;;;;;;;;;9.10;74.10;;;;;;4932985;29;20001;-75
2023/04/07 08:18:39;;;;;;;;;;;9.20;71.90;;;;;;4933895;29;19923;-75
2023/04/07 08:21:05;;;;;;;;;;;9.30;70.70;;;;;;4950271;28;20835;-76
2023/04/07 08:23:30;;;;;;;;;;;9.40;69.70;;;;;;4937274;29;19919;-76
2023/04/07 08:25:56;;;;;;;;;;;9.50;72.80;;;;;;4917604;29;19919;-76
2023/04/07 08:28:22;;;;;;;;;;;9.60;70.70;;;;;;4946108;29;20530;-76
2023/04/07 08:30:48;;;;;;;;;;;9.70;70.60;;;;;;4932760;29;20005;-76
2023/04/07 08:33:14;;;;;;;;;;;9.90;71.10;;;;;;4928088;29;20058;-76
2023/04/07 08:35:40;;;;;;;;;;;10.00;69.60;;;;;;4945203;29;20232;-76
2023/04/07 08:38:07;;;;;;;;;;;10.10;69.10;;;;;;4947182;29;19922;-76
2023/04/07 08:40:33;;;;;;;;;;;10.20;70.10;;;;;;4916300;29;19918;-76
2023/04/07 08:42:58;;;;;;;;;;;10.30;68.60;;;;;;4976951;28;19921;-76
2023/04/07 08:45:24;;;;;;;;;;;10.40;68.90;;;;;;4930144;29;19918;-76
2023/04/07 08:47:50;;;;;;;;;;;10.60;68.50;;;;;;4933471;29;20371;-75
2023/04/07 08:50:16;;;;;;;;;;;10.60;67.00;;;;;;4932429;29;19965;-75
2023/04/07 08:52:45;;;;;;;;;;;10.70;66.90;;;;;;4960496;28;19915;-76
2023/04/07 08:55:11;;;;;;;;;;;10.90;68.00;;;;;;4955470;28;19914;-75
2023/04/07 08:57:37;;;;;;;;;;;10.90;64.30;;;;;;4931154;29;20378;-76
2023/04/07 09:00:05;;;;;;;;;;;11.00;65.60;;;;;;4932097;29;20403;-75
2023/04/07 09:02:32;;;;;;;;;;;11.00;64.10;;;;;;4917957;29;20128;-76
2023/04/07 09:04:58;;;;;;;;;;;11.00;62.50;;;;;;4939754;29;19926;-76
2023/04/07 09:07:23;;;;;;;;;;;11.10;63.40;;;;;;4947507;29;19918;-75
2023/04/07 09:09:49;;;;;;;;;;;11.10;63.40;;;;;;4972456;28;19926;-76
2023/04/07 09:12:15;;;;;;;;;;;11.20;64.30;;;;;;4932859;29;19934;-76
2023/04/07 09:14:41;;;;;;;;;;;11.30;62.40;;;;;;4955789;28;19914;-76
2023/04/07 09:17:06;;;;;;;;;;;11.40;61.30;;;;;;4936404;29;19922;-76
2023/04/07 09:19:32;;;;;;;;;;;11.40;60.50;;;;;;4918085;29;19918;-76
2023/04/07 09:21:58;;;;;;;;;;;11.50;62.00;;;;;;4943366;28;20304;-76
2023/04/07 09:24:27;;;;;;;;;;;11.60;61.30;;;;;;4943243;29;19950;-76
2023/04/07 09:27:09;;;;;;;;;;;11.80;62.00;;;;;;4958706;28;19918;-76
2023/04/07 09:29:34;;;;;;;;;;;11.80;58.70;;;;;;4926871;29;20585;-76
2023/04/07 09:32:00;;;;;;;;;;;11.70;57.30;;;;;;4917783;29;19922;-76
2023/04/07 09:34:33;;;;;;;;;;;11.80;59.60;;;;;;4933967;29;20239;-76
2023/04/07 09:36:58;;;;;;;;;;;11.80;58.40;;;;;;4943600;29;19923;-75
2023/04/07 09:39:24;;;;;;;;;;;11.90;59.30;;;;;;4941092;28;19919;-76
2023/04/07 09:41:50;;;;;;;;;;;11.90;60.80;;;;;;4937006;29;20375;-76
2023/04/07 09:44:18;;;;;;;;;;;12.10;60.00;;;;;;4973842;28;19938;-76
2023/04/07 09:47:02;;;;;;;;;;;12.20;57.80;;;;;;4902554;29;19922;-76
2023/04/07 09:49:28;;;;;;;;;;;12.20;57.90;;;;;;4932534;29;19915;-76
2023/04/07 09:51:54;;;;;;;;;;;12.40;58.10;;;;;;4919620;29;20907;-75
2023/04/07 09:54:36;;;;;;;;;;;12.40;57.10;;;;;;4961648;28;19911;-76
2023/04/07 09:57:07;;;;;;;;;;;12.60;59.10;;;;;;4921797;29;19915;-76
2023/04/07 09:59:33;;;;;;;;;;;12.70;56.90;;;;;;4915630;29;19966;-76
2023/04/07 10:01:58;;;;;;;;;;;12.70;55.50;;;;;;4933939;29;19993;-76
2023/04/07 10:04:26;;;;;;;;;;;12.60;54.40;;;;;;4905128;29;20060;-76
2023/04/07 10:06:53;;;;;;;;;;;12.70;54.10;;;;;;4921480;29;19957;-76
2023/04/07 10:09:19;;;;;;;;;;;12.90;55.50;;;;;;4932883;29;19914;-75
2023/04/07 10:11:45;;;;;;;;;;;12.90;54.00;;;;;;4959311;28;20061;-76
2023/04/07 10:14:12;;;;;;;;;;;12.90;54.90;;;;;;4946951;29;20018;-76
2023/04/07 10:16:37;;;;;;;;;;;13.10;56.90;;;;;;4919718;29;20379;-75
2023/04/07 10:19:03;;;;;;;;;;;13.20;53.70;;;;;;4921519;29;19922;-76
2023/04/07 10:21:29;;;;;;;;;;;13.20;54.80;;;;;;4929774;29;19997;-75
2023/04/07 10:24:07;;;;;;;;;;;13.20;55.30;;;;;;4912092;29;19922;-75
2023/04/07 10:26:33;;;;;;;;;;;13.30;55.10;;;;;;4918841;29;19921;-75
2023/04/07 10:29:00;;;;;;;;;;;13.20;53.80;;;;;;4891410;29;20217;-75
2023/04/07 10:31:26;;;;;;;;;;;13.30;53.60;;;;;;4901725;29;20374;-75
2023/04/07 10:33:52;;;;;;;;;;;13.50;54.10;;;;;;4885981;29;19914;-75
2023/04/07 10:36:19;;;;;;;;;;;13.30;49.90;;;;;;4918022;29;19998;-76
2023/04/07 10:39:03;;;;;;;;;;;13.40;52.70;;;;;;4933483;29;19919;-74
2023/04/07 10:41:57;;;;;;;;;;;13.30;50.30;;;;;;4920827;29;19923;-75
2023/04/07 10:44:39;;;;;;;;;;;13.50;52.50;;;;;;4917378;29;19915;-75
2023/04/07 10:47:05;;;;;;;;;;;13.40;50.00;;;;;;4917590;29;19915;-75
2023/04/07 10:49:32;;;;;;;;;;;13.60;53.10;;;;;;4901858;29;19915;-76
2023/04/07 10:52:10;;;;;;;;;;;13.70;48.10;;;;;;4901032;29;19911;-75
2023/04/07 10:54:36;;;;;;;;;;;13.50;49.20;;;;;;4917147;29;19914;-75
2023/04/07 10:57:12;;;;;;;;;;;13.60;49.50;;;;;;4901513;29;19918;-75
2023/04/07 10:59:38;;;;;;;;;;;13.60;48.90;;;;;;4878955;29;19918;-75
2023/04/07 11:02:24;;;;;;;;;;;13.60;49.30;;;;;;4903845;29;19927;-75
2023/04/07 11:04:50;;;;;;;;;;;14.30;55.20;;;;;;4900115;29;19915;-76
2023/04/07 11:07:17;;;;;;;;;;;14.60;52.10;;;;;;4898691;29;20355;-76
2023/04/07 11:09:42;;;;;;;;;;;14.80;54.10;;;;;;4921001;29;19922;-75
2023/04/07 11:12:08;;;;;;;;;;;15.20;53.50;;;;;;4918282;29;19914;-76
2023/04/07 11:14:36;;;;;;;;;;;15.40;52.30;;;;;;4918134;29;19911;-76
2023/04/07 11:17:02;;;;;;;;;;;15.60;52.30;;;;;;4929467;28;19918;-75
2023/04/07 11:19:27;;;;;;;;;;;15.70;49.10;;;;;;4958939;28;19970;-76
2023/04/07 11:22:12;;;;;;;;;;;15.90;52.00;;;;;;4964860;28;19929;-76
2023/04/07 11:24:40;;;;;;;;;;;16.00;51.60;;;;;;4934006;29;19914;-75
2023/04/07 11:27:11;;;;;;;;;;;16.20;48.20;;;;;;4933236;29;20374;-76
2023/04/07 11:29:37;;;;;;;;;;;16.20;49.40;;;;;;4953953;28;20275;-75
2023/04/07 11:32:03;;;;;;;;;;;16.50;49.60;;;;;;4933165;29;19915;-75
2023/04/07 11:34:29;;;;;;;;;;;16.70;47.00;;;;;;4920120;29;19918;-75
2023/04/07 11:36:58;;;;;;;;;;;16.80;46.30;;;;;;4934898;29;20017;-75
2023/04/07 11:39:26;;;;;;;;;;;16.60;45.60;;;;;;4917173;29;19949;-72
2023/04/07 11:41:52;;;;;;;;;;;16.40;45.50;;;;;;4931217;29;19918;-72
2023/04/07 11:44:18;;;;;;;;;;;16.30;43.90;;;;;;4967217;28;19920;-72
2023/04/07 11:46:56;;;;;;;;;;;15.80;44.60;;;;;;4929888;29;19918;-72
2023/04/07 11:49:26;;;;;;;;;;;15.60;44.20;;;;;;4956633;28;19914;-72
2023/04/07 11:52:02;;;;;;;;;;;15.40;44.00;;;;;;4949372;28;19946;-72
2023/04/07 11:54:39;;;;;;;;;;;15.80;45.00;;;;;;4947458;28;19974;-72
2023/04/07 11:57:06;;;;;;;;;;;16.00;43.90;;;;;;4938249;29;19946;-72
2023/04/07 11:59:31;;;;;;;;;;;15.80;42.70;;;;;;4931965;29;19918;-72
2023/04/07 12:01:57;;;;;;;;;;;15.80;44.20;;;;;;4931435;29;19915;-72
2023/04/07 12:04:22;;;;;;;;;;;15.80;43.80;;;;;;4930341;29;19950;-72
2023/04/07 12:06:48;;;;;;;;;;;15.70;44.00;;;;;;4913294;29;20308;-72
2023/04/07 12:09:26;;;;;;;;;;;15.80;44.00;;;;;;4955941;28;19950;-72
2023/04/07 12:11:52;;;;;;;;;;;15.90;43.40;;;;;;4958182;28;20307;-72
2023/04/07 12:14:18;;;;;;;;;;;15.80;42.90;;;;;;4958079;28;19926;-72
2023/04/07 12:16:44;;;;;;;;;;;16.00;45.00;;;;;;4930390;29;20061;-72
2023/04/07 12:19:09;;;;;;;;;;;16.00;43.80;;;;;;4915723;29;20432;-72
2023/04/07 12:21:35;;;;;;;;;;;16.10;43.60;;;;;;4939616;29;20300;-72
2023/04/07 12:24:01;;;;;;;;;;;16.40;43.10;;;;;;4930578;29;19950;-72
2023/04/07 12:26:26;;;;;;;;;;;16.50;42.40;;;;;;4931706;29;19911;-72
2023/04/07 12:28:52;;;;;;;;;;;16.30;43.00;;;;;;4927391;29;19926;-72
2023/04/07 12:31:18;;;;;;;;;;;16.30;43.90;;;;;;4931730;29;19975;-72
2023/04/07 12:33:44;;;;;;;;;;;16.60;42.00;;;;;;4931535;29;19988;-72
2023/04/07 12:36:09;;;;;;;;;;;16.20;40.20;;;;;;4930744;29;19911;-73
2023/04/07 12:38:35;;;;;;;;;;;16.10;42.10;;;;;;4912190;29;19918;-72
2023/04/07 12:41:02;;;;;;;;;;;16.40;40.60;;;;;;4913682;29;19922;-72
2023/04/07 12:43:28;;;;;;;;;;;16.70;41.10;;;;;;4944450;29;19914;-72
2023/04/07 12:45:54;;;;;;;;;;;16.40;39.60;;;;;;4929381;29;19914;-72
2023/04/07 12:48:20;;;;;;;;;;;16.60;40.50;;;;;;4929518;29;19911;-72
2023/04/07 12:50:45;;;;;;;;;;;16.90;41.50;;;;;;4928238;29;19918;-72
2023/04/07 12:53:11;;;;;;;;;;;16.70;39.80;;;;;;4945781;29;19965;-72
2023/04/07 12:55:37;;;;;;;;;;;16.80;40.60;;;;;;4913805;29;19915;-72
2023/04/07 12:58:03;;;;;;;;;;;16.80;39.70;;;;;;4931409;29;19918;-72
2023/04/07 13:00:29;;;;;;;;;;;17.00;39.20;;;;;;4928651;29;19915;-72
2023/04/07 13:02:55;;;;;;;;;;;17.40;38.80;;;;;;4926021;29;20251;-72
2023/04/07 13:05:20;;;;;;;;;;;17.10;37.10;;;;;;4932314;29;19965;-73
2023/04/07 13:07:46;;;;;;;;;;;17.20;39.50;;;;;;4931414;29;19945;-72
2023/04/07 13:10:12;;;;;;;;;;;17.30;39.70;;;;;;4930627;29;19966;-72
2023/04/07 13:12:38;;;;;;;;;;;17.70;39.20;;;;;;4919975;29;20294;-72
2023/04/07 13:15:04;;;;;;;;;;;17.80;37.70;;;;;;4920215;29;19910;-72
2023/04/07 13:17:30;;;;;;;;;;;18.30;36.30;;;;;;4955354;28;20328;-73
2023/04/07 13:19:56;;;;;;;;;;;18.40;36.10;;;;;;4917085;29;19942;-73
2023/04/07 13:22:21;;;;;;;;;;;18.20;37.90;;;;;;4932645;29;19915;-73
2023/04/07 13:24:47;;;;;;;;;;;18.70;37.10;;;;;;4933789;29;19914;-73
2023/04/07 13:27:12;;;;;;;;;;;18.90;37.10;;;;;;4932640;29;19911;-74
2023/04/07 13:29:38;;;;;;;;;;;19.40;37.40;;;;;;4950383;28;20393;-74
2023/04/07 13:32:07;;;;;;;;;;;19.60;37.90;;;;;;4932100;29;19986;-74
2023/04/07 13:34:33;;;;;;;;;;;19.40;36.80;;;;;;4932296;29;20316;-74
2023/04/07 13:37:02;;;;;;;;;;;19.60;37.50;;;;;;4933234;29;20407;-73
2023/04/07 13:39:28;;;;;;;;;;;20.10;35.50;;;;;;4933039;29;19926;-74
2023/04/07 13:41:54;;;;;;;;;;;19.30;36.30;;;;;;4931372;29;19918;-73
2023/04/07 13:44:21;;;;;;;;;;;19.30;36.80;;;;;;4947036;28;19914;-74
2023/04/07 13:46:46;;;;;;;;;;;20.00;36.80;;;;;;4962262;28;19922;-73
2023/04/07 13:49:13;;;;;;;;;;;19.30;36.00;;;;;;4947703;29;19940;-73
2023/04/07 13:51:39;;;;;;;;;;;20.20;35.30;;;;;;4957622;28;20667;-73
2023/04/07 13:54:05;;;;;;;;;;;20.60;36.40;;;;;;4954555;28;19946;-74
2023/04/07 13:56:31;;;;;;;;;;;20.90;34.90;;;;;;4932569;29;19914;-73
2023/04/07 13:58:57;;;;;;;;;;;20.40;35.90;;;;;;4931982;29;19918;-73
2023/04/07 14:01:22;;;;;;;;;;;21.00;33.90;;;;;;4931863;29;19946;-73
2023/04/07 14:03:48;;;;;;;;;;;20.80;35.60;;;;;;4915318;29;19962;-73
2023/04/07 14:06:14;;;;;;;;;;;20.60;35.60;;;;;;4932977;29;19961;-73
2023/04/07 14:08:39;;;;;;;;;;;19.90;35.70;;;;;;4916359;29;19915;-73
2023/04/07 14:11:05;;;;;;;;;;;20.20;35.40;;;;;;4973467;28;19950;-73
2023/04/07 14:13:31;;;;;;;;;;;20.00;35.10;;;;;;4909353;29;20267;-73
2023/04/07 14:15:57;;;;;;;;;;;20.80;35.20;;;;;;4931554;29;20308;-73
2023/04/07 14:18:23;;;;;;;;;;;21.30;34.60;;;;;;4918898;29;19969;-73
2023/04/07 14:20:49;;;;;;;;;;;21.70;34.20;;;;;;4931961;29;19915;-73
2023/04/07 14:23:15;;;;;;;;;;;21.60;32.10;;;;;;4931522;29;19974;-73
2023/04/07 14:25:41;;;;;;;;;;;21.60;32.90;;;;;;4932309;29;19924;-73